CheckWX is a tool to help pilots better visualize weather data.  It is not intended as a substitute for an official pre-flight weather briefing.

01:35:36 UTC

KJXN TAF
Jackson County-Reynolds Field Airport
Jackson, Michigan, USA
KJXN 222338Z 2300/2324 VRB03KT P6SM SKC FM231500 22008KT P6SM BKN200

Nov-23@
00:00 UTC

Nov-23 @ 00:00 UTC

Nov-23@
15:00 UTC

Nov-23 @ 15:00 UTC

KJXN 222338Z 2300/2324 VRB03KT P6SM SKC
Wind
  • Variable at 3 KTS
Cloud Levels
  • Clear skies

Nov-23@
15:00 UTC

Nov-23 @ 15:00 UTC

Nov-24@
00:00 UTC

Nov-24 @ 00:00 UTC

FM231500 22008KT P6SM BKN200

From

From Standard forecast or significant change

Wind
  • 220° at 8 KTS
Cloud Levels
  • Broken at 20,000' AGL